createdAt,value
2019-05-19T00:00:32.896Z,93965.28
2019-05-19T00:03:04.290Z,93966.83
2019-05-19T00:05:35.852Z,93955.28
2019-05-19T00:08:06.870Z,93953.43
2019-05-19T00:10:38.042Z,93963.47
2019-05-19T00:13:09.161Z,93964.89
2019-05-19T00:15:40.182Z,93968.35
2019-05-19T00:18:11.253Z,93978.07
2019-05-19T00:20:42.337Z,93976.75
2019-05-19T00:23:13.360Z,93970.42
2019-05-19T00:25:44.466Z,93968.06
2019-05-19T00:28:15.605Z,93961.20
2019-05-19T00:30:46.712Z,93963.93
2019-05-19T00:33:17.919Z,93958.88
2019-05-19T00:35:48.973Z,93958.88
2019-05-19T00:38:20.031Z,93954.61
2019-05-19T00:40:51.131Z,93959.59
2019-05-19T00:43:22.240Z,93959.89
2019-05-19T00:45:53.418Z,93961.73
2019-05-19T00:48:24.568Z,93960.05
2019-05-19T00:50:56.898Z,93963.14
2019-05-19T00:53:28.094Z,93963.02
2019-05-19T00:56:00.693Z,93966.20
2019-05-19T00:58:34.522Z,93970.06
2019-05-19T01:01:05.700Z,93971.44
2019-05-19T01:03:36.747Z,93968.58
2019-05-19T01:06:08.995Z,93967.89
2019-05-19T01:08:40.033Z,93963.98
2019-05-19T01:11:11.113Z,93962.09
2019-05-19T01:13:42.238Z,93962.13
2019-05-19T01:16:13.386Z,93968.58
2019-05-19T01:18:45.452Z,93966.17
2019-05-19T01:21:17.292Z,93971.72
2019-05-19T01:23:48.356Z,93975.58
2019-05-19T01:26:19.428Z,93972.98
2019-05-19T01:28:50.540Z,93974.77
2019-05-19T01:31:21.693Z,93969.83
2019-05-19T01:33:52.701Z,93973.38
2019-05-19T01:36:23.724Z,93979.77
2019-05-19T01:38:54.861Z,93979.56
2019-05-19T01:41:26.055Z,93972.50
2019-05-19T01:43:57.138Z,93976.10
2019-05-19T01:46:28.226Z,93974.20
2019-05-19T01:48:59.330Z,93972.20
2019-05-19T01:51:30.399Z,93982.38
2019-05-19T01:54:01.538Z,93975.36
2019-05-19T01:56:32.597Z,93979.48
2019-05-19T01:59:03.678Z,93983.11
2019-05-19T02:01:35.948Z,93993.38
2019-05-19T02:04:07.192Z,93986.97
2019-05-19T02:06:38.417Z,93987.08
2019-05-19T02:09:09.651Z,93991.13
2019-05-19T02:11:40.879Z,93993.45
2019-05-19T02:14:11.975Z,93992.67
2019-05-19T02:16:43.081Z,93985.92
2019-05-19T02:19:14.259Z,93986.07
2019-05-19T02:21:45.354Z,93987.80
2019-05-19T02:24:16.463Z,93993.05
2019-05-19T02:26:47.564Z,93994.58
2019-05-19T02:29:18.737Z,93999.80
2019-05-19T02:31:50.926Z,93999.72
2019-05-19T02:34:21.975Z,93994.64
2019-05-19T02:36:53.061Z,94003.23
2019-05-19T02:39:24.310Z,93999.41
2019-05-19T02:41:55.463Z,94004.40
2019-05-19T02:44:28.127Z,94005.66
2019-05-19T02:47:01.076Z,94000.62
2019-05-19T02:49:34.032Z,94003.93
2019-05-19T02:52:05.646Z,94003.40
2019-05-19T02:54:37.539Z,94001.39
2019-05-19T02:57:09.079Z,94009.75
2019-05-19T02:59:41.455Z,94005.24
2019-05-19T03:02:13.931Z,94007.74
2019-05-19T03:04:45.100Z,94005.67
2019-05-19T03:07:16.150Z,94002.99
2019-05-19T03:09:47.269Z,94000.39
2019-05-19T03:12:18.383Z,94002.64
2019-05-19T03:14:49.550Z,94006.55
2019-05-19T03:17:20.590Z,94010.45
2019-05-19T03:19:52.105Z,94010.51
2019-05-19T03:22:24.019Z,94009.73
2019-05-19T03:24:55.101Z,94015.16
2019-05-19T03:27:26.094Z,94015.42
2019-05-19T03:29:58.872Z,94012.93
2019-05-19T03:32:45.935Z,94011.63
2019-05-19T03:35:17.078Z,94016.25
2019-05-19T03:37:48.178Z,94027.73
2019-05-19T03:40:22.245Z,94024.72
2019-05-19T03:42:53.608Z,94023.36
2019-05-19T03:45:24.702Z,94026.31
2019-05-19T03:47:55.991Z,94021.38
2019-05-19T03:50:27.070Z,94021.88
2019-05-19T03:52:58.110Z,94020.96
2019-05-19T03:55:29.158Z,94023.89
2019-05-19T03:58:00.254Z,94022.09
2019-05-19T04:00:31.533Z,94020.63
2019-05-19T04:03:02.674Z,94025.66
2019-05-19T04:05:33.841Z,94022.28
2019-05-19T04:08:04.965Z,94022.88
2019-05-19T04:10:36.409Z,94029.59
2019-05-19T04:13:07.442Z,94028.39
2019-05-19T04:15:38.643Z,94033.54
2019-05-19T04:18:09.659Z,94028.74
2019-05-19T04:20:40.847Z,94030.10
2019-05-19T04:23:11.895Z,94030.69
2019-05-19T04:25:43.074Z,94030.69
2019-05-19T04:28:14.191Z,94032.95
2019-05-19T04:30:45.360Z,94029.12
2019-05-19T04:33:16.630Z,94035.41
2019-05-19T04:35:47.669Z,94036.31
2019-05-19T04:38:18.690Z,94034.45
2019-05-19T04:40:49.775Z,94042.98
2019-05-19T04:43:20.799Z,94043.38
2019-05-19T04:45:51.829Z,94030.13
2019-05-19T04:48:23.009Z,94029.20
2019-05-19T04:50:54.071Z,94025.39
2019-05-19T04:53:26.306Z,94022.66
2019-05-19T04:55:57.457Z,94026.37
2019-05-19T04:58:28.455Z,94013.94
2019-05-19T05:00:59.496Z,94023.09
2019-05-19T05:03:31.575Z,94022.67
2019-05-19T05:06:02.666Z,94010.30
2019-05-19T05:08:33.758Z,94014.74
2019-05-19T05:11:04.846Z,94013.95
2019-05-19T05:13:35.843Z,94017.73
2019-05-19T05:16:06.874Z,94021.17
2019-05-19T05:18:37.932Z,94026.35
2019-05-19T05:21:08.980Z,94019.38
2019-05-19T05:23:40.007Z,94016.16
2019-05-19T05:26:11.137Z,94025.87
2019-05-19T05:28:42.138Z,94031.86
2019-05-19T05:31:15.518Z,94034.89
2019-05-19T05:33:47.611Z,94039.50
2019-05-19T05:36:18.714Z,94033.04
2019-05-19T05:38:49.837Z,94030.88
2019-05-19T05:41:21.107Z,94030.75
2019-05-19T05:43:52.198Z,94032.42
2019-05-19T05:46:23.437Z,94026.73
2019-05-19T05:48:54.420Z,94025.61
2019-05-19T05:51:25.838Z,94028.36
2019-05-19T05:53:56.891Z,94031.45
2019-05-19T05:56:27.930Z,94035.54
2019-05-19T05:58:58.934Z,94031.47
2019-05-19T06:01:30.055Z,94027.30
2019-05-19T06:04:01.050Z,94023.27
2019-05-19T06:06:32.300Z,94027.51
2019-05-19T06:09:05.796Z,94021.91
2019-05-19T06:11:37.187Z,94028.81
2019-05-19T06:14:08.353Z,94029.54
2019-05-19T06:16:39.410Z,94016.94
2019-05-19T06:19:10.491Z,94014.73
2019-05-19T06:21:41.625Z,94018.89
2019-05-19T06:24:12.801Z,94029.47
2019-05-19T06:26:43.862Z,94028.34
2019-05-19T06:29:14.891Z,94029.12
2019-05-19T06:31:46.077Z,94037.12
2019-05-19T06:34:17.225Z,94035.22
2019-05-19T06:36:48.396Z,94037.33
2019-05-19T06:39:19.438Z,94034.30
2019-05-19T06:41:50.476Z,94038.69
2019-05-19T06:44:21.523Z,94034.49
2019-05-19T06:46:52.551Z,94023.05
2019-05-19T06:49:23.670Z,94019.28
2019-05-19T06:51:54.675Z,94018.67
2019-05-19T06:54:25.673Z,94019.45
2019-05-19T06:56:56.764Z,94008.86
2019-05-19T06:59:27.805Z,94001.05
2019-05-19T07:01:58.888Z,93999.48
2019-05-19T07:04:29.966Z,93993.30
2019-05-19T07:07:01.101Z,93981.67
2019-05-19T07:09:32.101Z,93983.64
2019-05-19T07:12:03.114Z,93980.47
2019-05-19T07:14:34.207Z,93981.90
2019-05-19T07:17:05.441Z,93974.03
2019-05-19T07:19:36.641Z,93969.02
2019-05-19T07:22:07.913Z,93973.31
2019-05-19T07:24:38.951Z,93970.17
2019-05-19T07:27:09.993Z,93969.76
2019-05-19T07:29:41.041Z,93951.70
2019-05-19T07:32:12.140Z,93957.94
2019-05-19T07:34:43.338Z,93952.27
2019-05-19T07:37:14.467Z,93952.04
2019-05-19T07:39:45.483Z,93953.60
2019-05-19T07:42:16.604Z,93947.30
2019-05-19T07:44:47.630Z,93947.33
2019-05-19T07:47:18.735Z,93953.41
2019-05-19T07:49:49.753Z,93950.47
2019-05-19T07:52:20.881Z,93952.91
2019-05-19T07:54:51.948Z,93966.22
2019-05-19T07:57:23.010Z,93973.00
2019-05-19T07:59:54.215Z,93967.16
2019-05-19T08:02:25.237Z,93969.82
2019-05-19T08:04:56.248Z,93972.48
2019-05-19T08:07:27.372Z,93972.79
2019-05-19T08:09:58.493Z,93974.05
2019-05-19T08:12:29.552Z,93971.20
2019-05-19T08:15:00.590Z,93977.13
2019-05-19T08:17:31.716Z,93982.59
2019-05-19T08:20:02.712Z,93980.70
2019-05-19T08:22:33.741Z,93988.89
2019-05-19T08:25:05.294Z,93985.71
2019-05-19T08:27:36.314Z,93976.08
2019-05-19T08:30:08.793Z,93981.55
2019-05-19T08:32:39.988Z,93978.86
2019-05-19T08:35:11.122Z,93992.02
2019-05-19T08:37:43.338Z,93992.11
2019-05-19T08:40:14.618Z,93989.64
2019-05-19T08:42:45.673Z,93998.48
2019-05-19T08:45:17.286Z,94000.77
2019-05-19T08:47:48.356Z,93991.03
2019-05-19T08:50:19.505Z,93978.64
2019-05-19T08:52:50.547Z,93983.50
2019-05-19T08:55:21.691Z,93988.02
2019-05-19T08:57:52.750Z,93985.38
2019-05-19T09:00:24.038Z,93997.78
2019-05-19T09:02:55.094Z,93990.55
2019-05-19T09:05:26.251Z,93984.95
2019-05-19T09:07:58.335Z,93994.91
2019-05-19T09:10:29.403Z,93995.33
2019-05-19T09:13:00.515Z,93978.95
2019-05-19T09:15:31.758Z,93985.03
2019-05-19T09:18:02.850Z,93983.53
2019-05-19T09:20:33.853Z,93978.76
2019-05-19T09:23:05.041Z,93965.47
2019-05-19T09:25:36.164Z,93962.73
2019-05-19T09:28:07.186Z,93966.48
2019-05-19T09:30:38.291Z,93962.13
2019-05-19T09:33:09.413Z,93971.03
2019-05-19T09:35:40.397Z,93973.09
2019-05-19T09:38:11.432Z,93964.51
2019-05-19T09:40:42.492Z,93954.13
2019-05-19T09:43:14.166Z,93958.36
2019-05-19T09:45:45.445Z,93961.44
2019-05-19T09:48:16.540Z,93954.66
2019-05-19T09:50:47.745Z,93940.17
2019-05-19T09:53:20.049Z,93939.78
2019-05-19T09:55:51.102Z,93932.57
2019-05-19T09:58:22.209Z,93931.52
2019-05-19T10:00:53.433Z,93936.92
2019-05-19T10:03:24.727Z,93928.36
2019-05-19T10:05:56.786Z,93920.06
2019-05-19T10:08:32.875Z,93920.53
2019-05-19T10:11:59.526Z,93919.67
2019-05-19T10:14:30.605Z,93924.59
2019-05-19T10:17:48.682Z,93923.61
2019-05-19T10:19:40.085Z,93926.64
2019-05-19T10:22:11.364Z,93921.04
2019-05-19T10:24:59.186Z,93917.03
2019-05-19T10:27:15.486Z,93916.02
2019-05-19T10:29:46.648Z,93910.25
2019-05-19T10:32:17.738Z,93916.78
2019-05-19T10:34:48.943Z,93913.97
2019-05-19T10:37:20.070Z,93910.03
2019-05-19T10:39:51.131Z,93902.02
2019-05-19T10:42:22.272Z,93900.59
2019-05-19T10:44:53.377Z,93899.69
2019-05-19T10:47:24.457Z,93902.28
2019-05-19T10:49:55.485Z,93897.74
2019-05-19T10:52:26.497Z,93899.74
2019-05-19T10:54:57.592Z,93898.89
2019-05-19T10:57:28.623Z,93892.34
2019-05-19T10:59:59.719Z,93896.45
2019-05-19T11:02:30.779Z,93885.70
2019-05-19T11:05:01.884Z,93891.42
2019-05-19T11:07:34.022Z,93889.81
2019-05-19T11:10:05.674Z,93887.84
2019-05-19T11:12:36.796Z,93882.82
2019-05-19T11:15:08.648Z,93890.10
2019-05-19T11:18:32.616Z,93888.11
2019-05-19T11:21:03.718Z,93883.19
2019-05-19T11:23:34.762Z,93878.95
2019-05-19T11:26:06.179Z,93877.92
2019-05-19T11:28:37.287Z,93882.92
2019-05-19T11:31:08.427Z,93877.49
2019-05-19T11:33:39.588Z,93874.23
2019-05-19T11:36:10.879Z,93868.42
2019-05-19T11:38:43.008Z,93865.09
2019-05-19T11:41:14.088Z,93858.10
2019-05-19T11:43:45.164Z,93860.44
2019-05-19T11:46:16.171Z,93855.49
2019-05-19T11:48:47.331Z,93852.61
2019-05-19T11:51:18.490Z,93858.83
2019-05-19T11:53:49.511Z,93853.99
2019-05-19T11:56:20.507Z,93848.27
2019-05-19T11:58:51.505Z,93850.89
2019-05-19T12:01:22.553Z,93852.22
2019-05-19T12:03:55.501Z,93848.33
2019-05-19T12:06:38.805Z,93841.89
2019-05-19T12:08:59.498Z,93843.82
2019-05-19T12:11:30.588Z,93845.20
2019-05-19T12:14:01.637Z,93840.73
2019-05-19T12:16:32.911Z,93833.98
2019-05-19T12:19:04.156Z,93842.05
2019-05-19T12:21:35.162Z,93842.77
2019-05-19T12:24:06.530Z,93847.34
2019-05-19T12:26:37.720Z,93833.92
2019-05-19T12:29:08.933Z,93839.06
2019-05-19T12:31:40.100Z,93836.11
2019-05-19T12:34:11.169Z,93835.92
2019-05-19T12:36:42.262Z,93830.52
2019-05-19T12:39:13.308Z,93830.34
2019-05-19T12:41:44.442Z,93834.84
2019-05-19T12:44:16.519Z,93834.86
2019-05-19T12:46:47.554Z,93828.84
2019-05-19T12:49:18.798Z,93829.99
2019-05-19T12:51:50.050Z,93828.61
2019-05-19T12:54:21.054Z,93827.13
2019-05-19T12:56:52.159Z,93828.61
2019-05-19T12:59:23.275Z,93824.24
2019-05-19T13:01:54.609Z,93816.17
2019-05-19T13:04:25.666Z,93818.66
2019-05-19T13:06:56.856Z,93814.98
2019-05-19T13:09:27.960Z,93813.76
2019-05-19T13:11:58.991Z,93815.55
2019-05-19T13:14:30.011Z,93809.66
2019-05-19T13:17:01.061Z,93807.48
2019-05-19T13:19:32.150Z,93809.41
2019-05-19T13:22:03.172Z,93803.01
2019-05-19T13:24:34.245Z,93808.69
2019-05-19T13:27:05.508Z,93801.48
2019-05-19T13:29:36.653Z,93793.42
2019-05-19T13:32:42.968Z,93789.55
2019-05-19T13:35:14.575Z,93784.97
2019-05-19T13:37:45.676Z,93786.60
2019-05-19T13:40:16.969Z,93782.48
2019-05-19T13:42:48.087Z,93783.14
2019-05-19T13:45:19.336Z,93787.19
2019-05-19T13:47:50.681Z,93782.91
2019-05-19T13:50:21.781Z,93775.21
2019-05-19T13:52:52.911Z,93775.36
2019-05-19T13:55:23.889Z,93776.43
2019-05-19T13:57:54.920Z,93768.44
2019-05-19T14:00:25.950Z,93770.52
2019-05-19T14:02:57.047Z,93769.34
2019-05-19T14:05:28.130Z,93769.50
2019-05-19T14:07:59.151Z,93763.76
2019-05-19T14:10:30.177Z,93770.42
2019-05-19T14:13:01.270Z,93767.98
2019-05-19T14:15:32.334Z,93763.52
2019-05-19T14:18:03.531Z,93766.42
2019-05-19T14:20:34.637Z,93768.30
2019-05-19T14:23:05.751Z,93763.20
2019-05-19T14:25:36.886Z,93760.34
2019-05-19T14:28:07.968Z,93764.72
2019-05-19T14:30:38.976Z,93762.84
2019-05-19T14:33:10.012Z,93765.59
2019-05-19T14:35:41.029Z,93767.73
2019-05-19T14:38:12.099Z,93767.67
2019-05-19T14:40:43.856Z,93766.91
2019-05-19T14:43:15.326Z,93763.91
2019-05-19T14:45:46.344Z,93757.20
2019-05-19T14:48:17.350Z,93751.72
2019-05-19T14:50:48.426Z,93757.55
2019-05-19T14:53:19.521Z,93756.63
2019-05-19T14:55:50.665Z,93762.14
2019-05-19T14:58:21.680Z,93760.86
2019-05-19T15:00:52.758Z,93758.44
2019-05-19T15:03:23.844Z,93758.26
2019-05-19T15:05:54.921Z,93755.88
2019-05-19T15:08:26.228Z,93755.70
2019-05-19T15:10:57.238Z,93756.36
2019-05-19T15:13:28.284Z,93755.94
2019-05-19T15:16:00.658Z,93757.65
2019-05-19T15:18:32.664Z,93753.53
2019-05-19T15:21:03.737Z,93759.88
2019-05-19T15:23:34.781Z,93758.64
2019-05-19T15:26:05.962Z,93756.27
2019-05-19T15:28:37.105Z,93751.58
2019-05-19T15:31:09.182Z,93758.67
2019-05-19T15:33:41.367Z,93763.59
2019-05-19T15:36:12.460Z,93757.44
2019-05-19T15:38:43.599Z,93769.73
2019-05-19T15:41:14.671Z,93771.64
2019-05-19T15:43:45.888Z,93768.88
2019-05-19T15:46:18.209Z,93771.06
2019-05-19T15:48:49.630Z,93761.53
2019-05-19T15:51:28.662Z,93757.84
2019-05-19T15:53:53.415Z,93757.57
2019-05-19T15:56:24.511Z,93759.74
2019-05-19T15:58:55.557Z,93758.56
2019-05-19T16:01:26.653Z,93758.86
2019-05-19T16:03:57.702Z,93760.89
2019-05-19T16:06:28.760Z,93752.02
2019-05-19T16:09:00.025Z,93755.71
2019-05-19T16:11:31.162Z,93752.15
2019-05-19T16:14:02.220Z,93757.41
2019-05-19T16:16:33.327Z,93753.25
2019-05-19T16:19:04.528Z,93753.73
2019-05-19T16:21:35.645Z,93747.89
2019-05-19T16:24:06.814Z,93753.77
2019-05-19T16:26:37.831Z,93748.23
2019-05-19T16:29:08.915Z,93747.30
2019-05-19T16:31:39.927Z,93747.28
2019-05-19T16:34:11.129Z,93746.14
2019-05-19T16:36:42.147Z,93745.03
2019-05-19T16:39:13.269Z,93742.12
2019-05-19T16:41:44.304Z,93746.91
2019-05-19T16:44:15.487Z,93744.70
2019-05-19T16:46:47.558Z,93742.44
2019-05-19T16:49:18.599Z,93741.27
2019-05-19T16:51:49.884Z,93747.16
2019-05-19T16:54:25.734Z,93745.45
2019-05-19T16:56:56.836Z,93749.55
2019-05-19T16:59:27.856Z,93745.02
2019-05-19T17:01:58.856Z,93753.81
2019-05-19T17:04:29.887Z,93758.48
2019-05-19T17:07:03.065Z,93752.83
2019-05-19T17:09:33.969Z,93756.92
2019-05-19T17:12:06.938Z,93763.16
2019-05-19T17:14:38.083Z,93763.23
2019-05-19T17:17:09.084Z,93764.82
2019-05-19T17:19:40.140Z,93767.74
2019-05-19T17:22:11.172Z,93769.02
2019-05-19T17:24:42.532Z,93774.41
2019-05-19T17:27:13.687Z,93776.83
2019-05-19T17:33:12.452Z,93784.92
2019-05-19T17:39:14.279Z,93787.52
2019-05-19T17:41:45.308Z,93808.98
2019-05-19T17:44:16.363Z,93803.39
2019-05-19T17:46:47.404Z,93812.07
2019-05-19T17:49:18.478Z,93811.59
2019-05-19T17:51:49.720Z,93811.77
2019-05-19T17:54:20.857Z,93815.85
2019-05-19T17:56:54.111Z,93817.05
2019-05-19T17:59:25.961Z,93808.70
2019-05-19T18:01:57.018Z,93808.58
2019-05-19T18:04:28.048Z,93806.71
2019-05-19T18:06:59.149Z,93805.02
2019-05-19T18:09:31.335Z,93803.55
2019-05-19T18:12:02.560Z,93799.38
2019-05-19T18:14:33.743Z,93796.73
2019-05-19T18:17:04.967Z,93800.08
2019-05-19T18:19:36.341Z,93801.59
2019-05-19T18:22:07.826Z,93814.09
2019-05-19T18:24:54.851Z,93813.67
2019-05-19T18:27:25.983Z,93818.69
2019-05-19T18:29:57.103Z,93818.08
2019-05-19T18:32:28.292Z,93832.27
2019-05-19T18:34:59.324Z,93836.91
2019-05-19T18:37:30.438Z,93837.09
2019-05-19T18:40:01.466Z,93842.07
2019-05-19T18:42:32.595Z,93846.95
2019-05-19T18:45:03.805Z,93848.50
2019-05-19T18:47:35.067Z,93855.99
2019-05-19T18:50:06.796Z,93859.30
2019-05-19T18:52:37.978Z,93865.22
2019-05-19T18:55:09.445Z,93879.87
2019-05-19T18:57:40.641Z,93894.95
2019-05-19T19:00:16.512Z,93901.42
2019-05-19T19:02:48.110Z,93913.29
2019-05-19T19:05:19.369Z,93920.20
2019-05-19T19:07:52.710Z,93927.48
2019-05-19T19:10:23.914Z,93933.22
2019-05-19T19:12:54.972Z,93939.95
2019-05-19T19:15:26.061Z,93943.34
2019-05-19T19:17:57.465Z,93948.50
2019-05-19T19:20:28.610Z,93943.31
2019-05-19T19:22:59.739Z,93946.68
2019-05-19T19:25:30.810Z,93941.34
2019-05-19T19:28:01.889Z,93950.34
2019-05-19T19:30:33.193Z,93950.34
2019-05-19T19:33:04.474Z,93952.69
2019-05-19T19:35:39.080Z,93956.73
2019-05-19T19:38:08.720Z,93959.69
2019-05-19T19:40:39.910Z,93961.89
2019-05-19T19:43:12.195Z,93964.31
2019-05-19T19:45:43.356Z,93957.63
2019-05-19T19:48:15.577Z,93962.74
2019-05-19T19:50:46.751Z,93961.59
2019-05-19T19:53:19.181Z,93970.91
2019-05-19T19:55:50.395Z,93985.00
2019-05-19T19:58:21.548Z,93978.63
2019-05-19T20:00:52.635Z,93984.17
2019-05-19T20:03:23.869Z,93978.41
2019-05-19T20:05:55.186Z,93968.00
2019-05-19T20:08:26.315Z,93962.23
2019-05-19T20:10:57.474Z,93954.46
2019-05-19T20:13:28.553Z,93948.64
2019-05-19T20:15:59.584Z,93937.57
2019-05-19T20:18:30.770Z,93935.06
2019-05-19T20:21:01.874Z,93931.05
2019-05-19T20:23:33.084Z,93931.45
2019-05-19T20:26:04.349Z,93927.72
2019-05-19T20:28:35.426Z,93927.16
2019-05-19T20:31:06.714Z,93928.95
2019-05-19T20:33:37.880Z,93938.54
2019-05-19T20:36:09.019Z,93931.23
2019-05-19T20:38:40.312Z,93940.34
2019-05-19T20:41:11.414Z,93943.53
2019-05-19T20:43:42.688Z,93942.00
2019-05-19T20:46:13.703Z,93933.16
2019-05-19T20:48:45.012Z,93933.16
2019-05-19T20:51:16.209Z,93922.58
2019-05-19T20:53:47.375Z,93920.94
2019-05-19T20:56:18.506Z,93924.46
2019-05-19T20:58:49.791Z,93916.72
2019-05-19T21:01:20.843Z,93916.22
2019-05-19T21:03:52.073Z,93914.94
2019-05-19T21:06:23.158Z,93920.30
2019-05-19T21:08:54.424Z,93921.39
2019-05-19T21:11:25.579Z,93933.08
2019-05-19T21:13:56.682Z,93943.56
2019-05-19T21:16:27.849Z,93942.88
2019-05-19T21:19:12.579Z,93945.29
2019-05-19T21:21:43.661Z,93943.12
2019-05-19T21:24:14.840Z,93952.69
2019-05-19T21:26:46.076Z,93961.09
2019-05-19T21:29:17.250Z,93961.38
2019-05-19T21:31:48.374Z,93961.75
2019-05-19T21:34:19.573Z,93964.11
2019-05-19T21:36:50.875Z,93963.27
2019-05-19T21:39:21.918Z,93966.16
2019-05-19T21:41:53.119Z,93968.97
2019-05-19T21:44:24.340Z,93966.86
2019-05-19T21:46:55.528Z,93964.72
2019-05-19T21:49:26.887Z,93958.23
2019-05-19T21:51:58.092Z,93962.73
2019-05-19T21:54:29.440Z,93953.91
2019-05-19T21:57:00.504Z,93954.39
2019-05-19T21:59:32.647Z,93954.87
2019-05-19T22:02:04.657Z,93955.66
2019-05-19T22:04:36.068Z,93948.15
2019-05-19T22:07:14.556Z,93944.58
2019-05-19T22:09:45.803Z,93940.59
2019-05-19T22:12:16.922Z,93937.08
2019-05-19T22:14:48.075Z,93926.67
2019-05-19T22:17:19.300Z,93916.80
2019-05-19T22:19:50.436Z,93912.69
2019-05-19T22:22:21.601Z,93900.78
2019-05-19T22:24:52.731Z,93901.69
2019-05-19T22:27:23.833Z,93901.17
2019-05-19T22:29:55.017Z,93898.36
2019-05-19T22:32:27.451Z,93892.79
2019-05-19T22:34:58.572Z,93896.78
2019-05-19T22:37:29.636Z,93895.70
2019-05-19T22:40:00.745Z,93890.11
2019-05-19T22:42:31.972Z,93886.68
2019-05-19T22:45:03.080Z,93888.96
2019-05-19T22:47:34.382Z,93887.23
2019-05-19T22:50:06.679Z,93902.55
2019-05-19T22:52:38.830Z,93907.58
2019-05-19T22:55:10.577Z,93913.72
2019-05-19T22:57:41.626Z,93921.70
2019-05-19T23:00:16.049Z,93924.26
2019-05-19T23:02:48.638Z,93932.55
2019-05-19T23:05:19.985Z,93928.88
2019-05-19T23:07:51.171Z,93921.25
2019-05-19T23:10:22.654Z,93929.53
2019-05-19T23:12:53.821Z,93916.14
2019-05-19T23:15:25.259Z,93917.72
2019-05-19T23:17:56.461Z,93921.41
2019-05-19T23:20:27.622Z,93922.59
2019-05-19T23:22:59.204Z,93918.70
2019-05-19T23:25:30.387Z,93919.45
2019-05-19T23:28:01.535Z,93920.47
2019-05-19T23:30:32.720Z,93923.61
2019-05-19T23:33:03.840Z,93932.56
2019-05-19T23:35:34.951Z,93928.73
2019-05-19T23:38:06.183Z,93919.88
2019-05-19T23:40:37.412Z,93929.53
2019-05-19T23:43:09.568Z,93939.96
2019-05-19T23:45:40.696Z,93935.55
2019-05-19T23:48:11.761Z,93932.33
2019-05-19T23:50:42.972Z,93932.23
2019-05-19T23:53:14.030Z,93930.05
2019-05-19T23:55:45.308Z,93930.03
2019-05-19T23:58:17.303Z,93928.26
